Wetterdaten: aktuell Samstag, 18.09.2021 07:40
Datum Zeit Temp. A. Temp. A. min Temp. A. max Feuchte A. Luftdruck Regen Wind Richtung Richtung Sonnenschein UV Solar Windben
18.09.2021 07:40 12,7 C 12,7 C 12,7 C 94 % 1017,4 hPa 0,0 l/m 0,0 km/h (0 Bft) SO 135 0 min 0,0 UV-I 19 W/m 1,6 km/h (1 Bft)
18.09.2021 07:35 12,7 C 12,7 C 12,7 C 94 % 1017,4 hPa 0,0 l/m 0,0 km/h (0 Bft) SO 135 0 min 0,0 UV-I 14 W/m 1,6 km/h (1 Bft)
18.09.2021 07:30 12,7 C 12,6 C 12,7 C 95 % 1017,4 hPa 0,0 l/m 0,0 km/h (0 Bft) - - 0 0 min 0,0 UV-I 11 W/m 0,0 km/h (0 Bft)
18.09.2021 07:25 12,6 C 12,6 C 12,6 C 95 % 1017,3 hPa 0,0 l/m 0,0 km/h (0 Bft) - - 0 0 min 0,0 UV-I 9 W/m 0,0 km/h (0 Bft)
18.09.2021 07:20 12,6 C 12,5 C 12,6 C 94 % 1017,3 hPa 0,0 l/m 0,0 km/h (0 Bft) - - 0 0 min 0,0 UV-I 5 W/m 0,0 km/h (0 Bft)
18.09.2021 07:15 12,5 C 12,4 C 12,5 C 94 % 1017,2 hPa 0,0 l/m 0,0 km/h (0 Bft) - - 0 0 min 0,0 UV-I 0 W/m 0,0 km/h (0 Bft)
18.09.2021 07:10 12,4 C 12,3 C 12,4 C 94 % 1017,2 hPa 0,0 l/m 0,0 km/h (0 Bft) - - 0 0 min 0,0 UV-I 0 W/m 0,0 km/h (0 Bft)
18.09.2021 07:05 12,4 C 12,4 C 12,4 C 94 % 1017,2 hPa 0,0 l/m 0,0 km/h (0 Bft) - - 0 0 min 0,0 UV-I 0 W/m 0,0 km/h (0 Bft)
18.09.2021 07:00 12,4 C 12,3 C 12,4 C 94 % 1017,1 hPa 0,0 l/m 0,0 km/h (0 Bft) - - 0 0 min 0,0 UV-I 0 W/m 0,0 km/h (0 Bft)
18.09.2021 06:55 12,3 C 12,3 C 12,4 C 94 % 1017,1 hPa 0,0 l/m 0,0 km/h (0 Bft) - - 0 0 min 0,0 UV-I 0 W/m 0,0 km/h (0 Bft)
18.09.2021 06:50 12,4 C 12,4 C 12,5 C 94 % 1017,1 hPa 0,0 l/m 0,0 km/h (0 Bft) - - 0 0 min 0,0 UV-I 0 W/m 0,0 km/h (0 Bft)
18.09.2021 06:45 12,4 C 12,4 C 12,6 C 94 % 1017,0 hPa 0,0 l/m 0,0 km/h (0 Bft) - - 0 0 min 0,0 UV-I 0 W/m 0,0 km/h (0 Bft)
18.09.2021 06:40 12,6 C 12,6 C 12,7 C 94 % 1016,9 hPa 0,0 l/m 0,0 km/h (0 Bft) - - 0 0 min 0,0 UV-I 0 W/m 0,0 km/h (0 Bft)
18.09.2021 06:35 12,6 C 12,6 C 12,7 C 94 % 1017,0 hPa 0,0 l/m 0,0 km/h (0 Bft) - - 0 0 min 0,0 UV-I 0 W/m 0,0 km/h (0 Bft)
18.09.2021 06:30 12,6 C 12,3 C 12,6 C 95 % 1016,9 hPa 0,0 l/m 0,0 km/h (0 Bft) - - 0 0 min 0,0 UV-I 0 W/m 0,0 km/h (0 Bft)
18.09.2021 06:25 12,3 C 12,2 C 12,3 C 94 % 1016,9 hPa 0,0 l/m 0,0 km/h (0 Bft) - - 0 0 min 0,0 UV-I 0 W/m 0,0 km/h (0 Bft)
18.09.2021 06:20 12,2 C 12,1 C 12,2 C 94 % 1016,9 hPa 0,0 l/m 0,0 km/h (0 Bft) - - 0 0 min 0,0 UV-I 0 W/m 0,0 km/h (0 Bft)
18.09.2021 06:15 12,1 C 12,1 C 12,1 C 93 % 1016,8 hPa 0,0 l/m 0,0 km/h (0 Bft) - - 0 0 min 0,0 UV-I 0 W/m 0,0 km/h (0 Bft)
18.09.2021 06:10 12,1 C 12,1 C 12,2 C 93 % 1016,8 hPa 0,0 l/m 0,0 km/h (0 Bft) - - 0 0 min 0,0 UV-I 0 W/m 0,0 km/h (0 Bft)
18.09.2021 06:05 12,1 C 12,1 C 12,2 C 93 % 1016,7 hPa 0,0 l/m 0,0 km/h (0 Bft) - - 0 0 min 0,0 UV-I 0 W/m 0,0 km/h (0 Bft)
18.09.2021 06:00 12,2 C 12,2 C 12,2 C 93 % 1016,6 hPa 0,0 l/m 0,0 km/h (0 Bft) - - 0 0 min 0,0 UV-I 0 W/m 0,0 km/h (0 Bft)
18.09.2021 05:55 12,2 C 12,2 C 12,4 C 93 % 1016,7 hPa 0,0 l/m 0,0 km/h (0 Bft) - - 0 0 min 0,0 UV-I 0 W/m 0,0 km/h (0 Bft)
18.09.2021 05:50 12,4 C 12,4 C 12,7 C 93 % 1016,8 hPa 0,0 l/m 0,0 km/h (0 Bft) - - 0 0 min 0,0 UV-I 0 W/m 0,0 km/h (0 Bft)
18.09.2021 05:45 12,7 C 12,7 C 12,8 C 93 % 1016,8 hPa 0,0 l/m 0,0 km/h (0 Bft) - - 0 0 min 0,0 UV-I 0 W/m 0,0 km/h (0 Bft)
18.09.2021 05:40 12,7 C 12,7 C 12,8 C 93 % 1016,7 hPa 0,0 l/m 0,0 km/h (0 Bft) - - 0 0 min 0,0 UV-I 0 W/m 0,0 km/h (0 Bft)
18.09.2021 05:35 12,8 C 12,8 C 12,9 C 93 % 1016,7 hPa 0,0 l/m 0,0 km/h (0 Bft) - - 0 0 min 0,0 UV-I 0 W/m 0,0 km/h (0 Bft)
18.09.2021 05:30 12,9 C 12,9 C 13,1 C 93 % 1016,7 hPa 0,0 l/m 0,0 km/h (0 Bft) - - 0 0 min 0,0 UV-I 0 W/m 0,0 km/h (0 Bft)
18.09.2021 05:25 13,1 C 13,1 C 13,2 C 93 % 1016,7 hPa 0,0 l/m 0,0 km/h (0 Bft) - - 0 0 min 0,0 UV-I 0 W/m 0,0 km/h (0 Bft)
18.09.2021 05:20 13,1 C 13,1 C 13,2 C 93 % 1016,8 hPa 0,0 l/m 0,0 km/h (0 Bft) - - 0 0 min 0,0 UV-I 0 W/m 0,0 km/h (0 Bft)
18.09.2021 05:15 13,2 C 13,2 C 13,3 C 93 % 1016,8 hPa 0,0 l/m 0,0 km/h (0 Bft) - - 0 0 min 0,0 UV-I 0 W/m 0,0 km/h (0 Bft)
18.09.2021 05:10 13,3 C 13,2 C 13,3 C 94 % 1016,9 hPa 0,0 l/m 0,0 km/h (0 Bft) - - 0 0 min 0,0 UV-I 0 W/m 0,0 km/h (0 Bft)
18.09.2021 05:05 13,2 C 13,2 C 13,2 C 94 % 1016,9 hPa 0,0 l/m 0,0 km/h (0 Bft) - - 0 0 min 0,0 UV-I 0 W/m 0,0 km/h (0 Bft)
18.09.2021 05:00 13,2 C 13,1 C 13,2 C 94 % 1016,9 hPa 0,0 l/m 0,0 km/h (0 Bft) - - 0 0 min 0,0 UV-I 0 W/m 0,0 km/h (0 Bft)
18.09.2021 04:55 13,2 C 13,2 C 13,2 C 94 % 1016,9 hPa 0,0 l/m 0,0 km/h (0 Bft) - - 0 0 min 0,0 UV-I 0 W/m 0,0 km/h (0 Bft)
18.09.2021 04:50 13,2 C 13,2 C 13,3 C 93 % 1016,9 hPa 0,0 l/m 0,0 km/h (0 Bft) - - 0 0 min 0,0 UV-I 0 W/m 0,0 km/h (0 Bft)
18.09.2021 04:45 13,3 C 13,2 C 13,3 C 93 % 1016,9 hPa 0,0 l/m 0,0 km/h (0 Bft) - - 0 0 min 0,0 UV-I 0 W/m 0,0 km/h (0 Bft)
18.09.2021 04:40 13,3 C 13,2 C 13,3 C 94 % 1016,9 hPa 0,0 l/m 0,0 km/h (0 Bft) - - 0 0 min 0,0 UV-I 0 W/m 0,0 km/h (0 Bft)
18.09.2021 04:35 13,2 C 13,1 C 13,2 C 94 % 1017,0 hPa 0,0 l/m 0,0 km/h (0 Bft) - - 0 0 min 0,0 UV-I 0 W/m 0,0 km/h (0 Bft)
18.09.2021 04:30 13,1 C 13,0 C 13,1 C 94 % 1017,0 hPa 0,0 l/m 0,0 km/h (0 Bft) - - 0 0 min 0,0 UV-I 0 W/m 0,0 km/h (0 Bft)
18.09.2021 04:25 13,0 C 13,0 C 13,1 C 93 % 1016,9 hPa 0,0 l/m 0,0 km/h (0 Bft) - - 0 0 min 0,0 UV-I 0 W/m 0,0 km/h (0 Bft)
18.09.2021 04:20 13,0 C 13,0 C 13,1 C 93 % 1017,0 hPa 0,0 l/m 0,0 km/h (0 Bft) - - 0 0 min 0,0 UV-I 0 W/m 0,0 km/h (0 Bft)
18.09.2021 04:15 13,1 C 13,1 C 13,1 C 93 % 1017,1 hPa 0,0 l/m 0,0 km/h (0 Bft) - - 0 0 min 0,0 UV-I 0 W/m 0,0 km/h (0 Bft)
18.09.2021 04:10 13,1 C 13,1 C 13,2 C 93 % 1017,1 hPa 0,0 l/m 0,0 km/h (0 Bft) - - 0 0 min 0,0 UV-I 0 W/m 0,0 km/h (0 Bft)
18.09.2021 04:05 13,2 C 13,2 C 13,3 C 93 % 1017,0 hPa 0,0 l/m 0,0 km/h (0 Bft) - - 0 0 min 0,0 UV-I 0 W/m 0,0 km/h (0 Bft)
18.09.2021 04:00 13,2 C 13,2 C 13,3 C 93 % 1017,1 hPa 0,0 l/m 0,0 km/h (0 Bft) - - 0 0 min 0,0 UV-I 0 W/m 0,0 km/h (0 Bft)
18.09.2021 03:55 13,3 C 13,3 C 13,3 C 93 % 1017,1 hPa 0,0 l/m 0,0 km/h (0 Bft) - - 0 0 min 0,0 UV-I 0 W/m 0,0 km/h (0 Bft)
18.09.2021 03:50 13,3 C 13,3 C 13,4 C 93 % 1017,1 hPa 0,0 l/m 0,0 km/h (0 Bft) - - 0 0 min 0,0 UV-I 0 W/m 0,0 km/h (0 Bft)
18.09.2021 03:45 13,3 C 13,3 C 13,3 C 93 % 1017,1 hPa 0,0 l/m 0,0 km/h (0 Bft) - - 0 0 min 0,0 UV-I 0 W/m 0,0 km/h (0 Bft)
18.09.2021 03:40 13,3 C 13,3 C 13,5 C 93 % 1017,1 hPa 0,0 l/m 0,0 km/h (0 Bft) - - 0 0 min 0,0 UV-I 0 W/m 0,0 km/h (0 Bft)
18.09.2021 03:35 13,6 C 13,6 C 13,7 C 93 % 1017,1 hPa 0,0 l/m 0,0 km/h (0 Bft) - - 0 0 min 0,0 UV-I 0 W/m 0,0 km/h (0 Bft)
18.09.2021 03:30 13,7 C 13,7 C 13,8 C 93 % 1017,1 hPa 0,0 l/m 0,0 km/h (0 Bft) - - 0 0 min 0,0 UV-I 0 W/m 0,0 km/h (0 Bft)
18.09.2021 03:25 13,7 C 13,7 C 13,8 C 93 % 1017,1 hPa 0,0 l/m 0,0 km/h (0 Bft) - - 0 0 min 0,0 UV-I 0 W/m 0,0 km/h (0 Bft)
18.09.2021 03:20 13,8 C 13,8 C 13,8 C 93 % 1017,1 hPa 0,0 l/m 0,0 km/h (0 Bft) - - 0 0 min 0,0 UV-I 0 W/m 0,0 km/h (0 Bft)
18.09.2021 03:15 13,8 C 13,8 C 13,9 C 93 % 1017,1 hPa 0,0 l/m 0,0 km/h (0 Bft) - - 0 0 min 0,0 UV-I 0 W/m 0,0 km/h (0 Bft)
18.09.2021 03:10 13,9 C 13,9 C 13,9 C 93 % 1017,1 hPa 0,0 l/m 0,0 km/h (0 Bft) - - 0 0 min 0,0 UV-I 0 W/m 0,0 km/h (0 Bft)
18.09.2021 03:05 13,9 C 13,9 C 13,9 C 93 % 1017,0 hPa 0,0 l/m 0,0 km/h (0 Bft) - - 0 0 min 0,0 UV-I 0 W/m 0,0 km/h (0 Bft)
18.09.2021 03:00 13,9 C 13,8 C 13,9 C 93 % 1017,1 hPa 0,0 l/m 0,0 km/h (0 Bft) - - 0 0 min 0,0 UV-I 0 W/m 0,0 km/h (0 Bft)
18.09.2021 02:55 13,8 C 13,7 C 13,8 C 93 % 1017,0 hPa 0,0 l/m 0,0 km/h (0 Bft) - - 0 0 min 0,0 UV-I 0 W/m 0,0 km/h (0 Bft)
18.09.2021 02:50 13,7 C 13,6 C 13,7 C 93 % 1017,0 hPa 0,0 l/m 0,0 km/h (0 Bft) - - 0 0 min 0,0 UV-I 0 W/m 0,0 km/h (0 Bft)
18.09.2021 02:45 13,6 C 13,6 C 13,6 C 92 % 1017,1 hPa 0,0 l/m 0,0 km/h (0 Bft) - - 0 0 min 0,0 UV-I 0 W/m 0,0 km/h (0 Bft)
18.09.2021 02:40 13,6 C 13,6 C 13,7 C 92 % 1017,1 hPa 0,0 l/m 0,0 km/h (0 Bft) - - 0 0 min 0,0 UV-I 0 W/m 0,0 km/h (0 Bft)
18.09.2021 02:35 13,7 C 13,6 C 13,7 C 92 % 1017,2 hPa 0,0 l/m 0,0 km/h (0 Bft) - - 0 0 min 0,0 UV-I 0 W/m 0,0 km/h (0 Bft)
18.09.2021 02:30 13,7 C 13,7 C 13,9 C 92 % 1017,1 hPa 0,0 l/m 0,0 km/h (0 Bft) - - 0 0 min 0,0 UV-I 0 W/m 0,0 km/h (0 Bft)
18.09.2021 02:25 13,8 C 13,8 C 13,9 C 92 % 1017,2 hPa 0,0 l/m 0,0 km/h (0 Bft) - - 0 0 min 0,0 UV-I 0 W/m 0,0 km/h (0 Bft)
18.09.2021 02:20 13,9 C 13,9 C 14,1 C 92 % 1017,2 hPa 0,0 l/m 0,0 km/h (0 Bft) - - 0 0 min 0,0 UV-I 0 W/m 0,0 km/h (0 Bft)
18.09.2021 02:15 14,1 C 14,1 C 14,1 C 92 % 1017,2 hPa 0,0 l/m 0,0 km/h (0 Bft) - - 0 0 min 0,0 UV-I 0 W/m 0,0 km/h (0 Bft)
18.09.2021 02:10 14,1 C 14,1 C 14,1 C 92 % 1017,1 hPa 0,0 l/m 0,0 km/h (0 Bft) - - 0 0 min 0,0 UV-I 0 W/m 0,0 km/h (0 Bft)
18.09.2021 02:05 14,2 C 14,1 C 14,2 C 92 % 1017,1 hPa 0,0 l/m 0,0 km/h (0 Bft) - - 0 0 min 0,0 UV-I 0 W/m 0,0 km/h (0 Bft)
18.09.2021 02:00 14,1 C 14,0 C 14,1 C 92 % 1017,1 hPa 0,0 l/m 0,0 km/h (0 Bft) - - 0 0 min 0,0 UV-I 0 W/m 0,0 km/h (0 Bft)
18.09.2021 01:55 14,1 C 13,9 C 14,1 C 92 % 1017,1 hPa 0,0 l/m 0,0 km/h (0 Bft) - - 0 0 min 0,0 UV-I 0 W/m 0,0 km/h (0 Bft)
18.09.2021 01:50 13,9 C 13,9 C 14,0 C 91 % 1017,1 hPa 0,0 l/m 0,0 km/h (0 Bft) - - 0 0 min 0,0 UV-I 0 W/m 0,0 km/h (0 Bft)
18.09.2021 01:45 14,0 C 14,0 C 14,1 C 91 % 1017,1 hPa 0,0 l/m 0,0 km/h (0 Bft) - - 0 0 min 0,0 UV-I 0 W/m 0,0 km/h (0 Bft)
18.09.2021 01:40 14,1 C 14,1 C 14,1 C 91 % 1017,2 hPa 0,0 l/m 0,0 km/h (0 Bft) - - 0 0 min 0,0 UV-I 0 W/m 0,0 km/h (0 Bft)
18.09.2021 01:35 14,1 C 14,1 C 14,2 C 91 % 1017,2 hPa 0,0 l/m 0,0 km/h (0 Bft) - - 0 0 min 0,0 UV-I 0 W/m 0,0 km/h (0 Bft)
18.09.2021 01:30 14,2 C 14,2 C 14,2 C 91 % 1017,1 hPa 0,0 l/m 0,0 km/h (0 Bft) - - 0 0 min 0,0 UV-I 0 W/m 0,0 km/h (0 Bft)
18.09.2021 01:25 14,2 C 14,2 C 14,3 C 91 % 1017,1 hPa 0,0 l/m 0,0 km/h (0 Bft) - - 0 0 min 0,0 UV-I 0 W/m 0,0 km/h (0 Bft)
18.09.2021 01:20 14,3 C 14,3 C 14,4 C 91 % 1017,2 hPa 0,0 l/m 0,0 km/h (0 Bft) - - 0 0 min 0,0 UV-I 0 W/m 0,0 km/h (0 Bft)
18.09.2021 01:15 14,4 C 14,4 C 14,5 C 91 % 1017,1 hPa 0,0 l/m 0,0 km/h (0 Bft) - - 0 0 min 0,0 UV-I 0 W/m 0,0 km/h (0 Bft)
18.09.2021 01:10 14,4 C 14,4 C 14,6 C 91 % 1017,1 hPa 0,0 l/m 0,0 km/h (0 Bft) - - 0 0 min 0,0 UV-I 0 W/m 0,0 km/h (0 Bft)
18.09.2021 01:05 14,6 C 14,6 C 14,6 C 90 % 1017,1 hPa 0,0 l/m 0,0 km/h (0 Bft) - - 0 0 min 0,0 UV-I 0 W/m 0,0 km/h (0 Bft)
18.09.2021 01:00 14,6 C 14,6 C 14,7 C 90 % 1017,2 hPa 0,0 l/m 0,0 km/h (0 Bft) - - 0 0 min 0,0 UV-I 0 W/m 0,0 km/h (0 Bft)
18.09.2021 00:55 14,7 C 14,7 C 14,7 C 90 % 1017,1 hPa 0,0 l/m 0,0 km/h (0 Bft) - - 0 0 min 0,0 UV-I 0 W/m 0,0 km/h (0 Bft)
18.09.2021 00:50 14,7 C 14,7 C 14,8 C 90 % 1017,1 hPa 0,0 l/m 0,0 km/h (0 Bft) - - 0 0 min 0,0 UV-I 0 W/m 0,0 km/h (0 Bft)
18.09.2021 00:45 14,8 C 14,8 C 14,9 C 90 % 1017,1 hPa 0,0 l/m 0,0 km/h (0 Bft) - - 0 0 min 0,0 UV-I 0 W/m 0,0 km/h (0 Bft)
18.09.2021 00:40 14,9 C 14,9 C 14,9 C 90 % 1017,2 hPa 0,0 l/m 0,0 km/h (0 Bft) - - 0 0 min 0,0 UV-I 0 W/m 0,0 km/h (0 Bft)
18.09.2021 00:35 14,9 C 14,9 C 15,0 C 90 % 1017,1 hPa 0,0 l/m 0,0 km/h (0 Bft) - - 0 0 min 0,0 UV-I 0 W/m 0,0 km/h (0 Bft)
18.09.2021 00:30 15,0 C 15,0 C 15,1 C 90 % 1017,0 hPa 0,0 l/m 0,0 km/h (0 Bft) - - 0 0 min 0,0 UV-I 0 W/m 0,0 km/h (0 Bft)
18.09.2021 00:25 15,1 C 15,1 C 15,2 C 90 % 1017,1 hPa 0,0 l/m 0,0 km/h (0 Bft) - - 0 0 min 0,0 UV-I 0 W/m 0,0 km/h (0 Bft)
18.09.2021 00:20 15,2 C 15,2 C 15,3 C 90 % 1017,1 hPa 0,0 l/m 0,0 km/h (0 Bft) - - 0 0 min 0,0 UV-I 0 W/m 0,0 km/h (0 Bft)
18.09.2021 00:15 15,2 C 15,2 C 15,3 C 90 % 1017,1 hPa 0,0 l/m 0,0 km/h (0 Bft) NW 315 0 min 0,0 UV-I 0 W/m 1,6 km/h (1 Bft)
18.09.2021 00:10 15,2 C 15,2 C 15,2 C 90 % 1017,1 hPa 0,0 l/m 0,0 km/h (0 Bft) - - 0 0 min 0,0 UV-I 0 W/m 0,0 km/h (0 Bft)
18.09.2021 00:05 15,2 C 15,2 C 15,3 C 89 % 1017,2 hPa 0,0 l/m 0,0 km/h (0 Bft) - - 0 0 min 0,0 UV-I 0 W/m 0,0 km/h (0 Bft)
18.09.2021 00:00 15,3 C 15,3 C 15,3 C 89 % 1017,0 hPa 0,0 l/m 0,0 km/h (0 Bft) NW 315 0 min 0,0 UV-I 0 W/m 3,2 km/h (1 Bft)
_ Min-Zeit 06:05 06:05 06:15 00:00 06:00 - 00:00 - - - - - 00:05
Minimum _ 12,1 C 12,1 C 12,1 C 89 % 1016,6 hPa - 0,0 km/h (0 Bft) - - - - - 0,0 km/h (0 Bft)
_ Max-Zeit 00:00 00:00 00:00 06:30 07:30 00:00 00:00 - - 00:00 00:00 07:40 00:00
Maximum _ 15,3 C 15,3 C 15,3 C 95 % 1017,4 hPa 0,0 l/m 0,0 km/h
NW (0 Bft)
- - 0 min 0,0 UV-I 19 W/m 3,2 km/h
NW (1 Bft)
Durchschnitt _ 13,5 C 13,5 C 13,5 C 93 % 1017,0 hPa #0,0 l/m 0,0 km/h (0 Bft) - - - #0 min. 0,0 UV-I 12 W/m 0,1 km/h (0 Bft)